Biotrans — JWPN — position and weather

sailwx.info

Track history (hours):
 
Tides and Currents Weather Stations Pressure Air Temp Water Temp Dewpoint Dewpoint Depression Visibility Wind Speed Wind Dir Waves Ship Positions

Biotrans

Last reported at 2014-Aug-28 20:27 UTC. Time now 2014-Aug-29 01:38 UTC.
Position N 64°46' E 011°02'.

Length 55 m; draft 5.5 m.

Type: Cargo ship. MMSI: 259260000.

Date/timePositionNaut miles runAvg speedWind from/ knotsBaromVisibWave heightAir tempDewpointWater temp
2014-Aug-28 20:27N 64°46' E 011°02'7 7.9
2014-Aug-28 19:33N 64°51' E 011°13'8 8.1
2014-Aug-28 18:33N 64°57' E 011°28'8 7.9
2014-Aug-28 17:33N 65°02' E 011°42'8 7.9
2014-Aug-28 16:31N 65°09' E 011°50'64 7.0
2014-Aug-28 07:25N 66°09' E 012°41'12 6.5
2014-Aug-28 05:32N 66°20' E 012°56'40 8.0
2014-Aug-28 00:29N 66°58' E 013°31'11 8.2
2014-Aug-27 23:05N 67°05' E 013°55'4 8.1
2014-Aug-27 22:33N 67°08' E 014°01'8 8.2
2014-Aug-27 21:33N 67°15' E 014°12'8 8.5
2014-Aug-27 20:33N 67°22' E 014°24'8 8.3
2014-Aug-27 19:33N 67°30' E 014°29'157 4.7
2014-Aug-26 10:27N 69°35' E 018°49'6 6.9
2014-Aug-26 09:33N 69°40' E 018°59'0 0.2
2014-Aug-26 08:33N 69°40' E 018°59'0 0.0
2014-Aug-26 07:34N 69°40' E 018°59'0 0.0
2014-Aug-26 06:33N 69°40' E 018°59'0 0.1
2014-Aug-26 05:33N 69°40' E 018°59'  
2014-Aug-22 13:14N 70°43' E 023°32'6 8.4
2014-Aug-22 12:29N 70°38' E 023°21'6 6.9
2014-Aug-22 11:33N 70°32' E 023°14'4 3.3
2014-Aug-22 10:28N 70°32' E 023°03'93 7.8
2014-Aug-21 22:31N 69°45' E 019°07'8 7.9
2014-Aug-21 21:33N 69°38' E 018°57'155 6.7
2014-Aug-20 22:28N 67°37' E 014°31'8 9.0
2014-Aug-20 21:34N 67°29' E 014°29'9 8.8
2014-Aug-20 20:34N 67°21' E 014°22'9 9.0
2014-Aug-20 19:34N 67°13' E 014°09'9 9.1
2014-Aug-20 18:33N 67°05' E 013°56'38 8.6
2014-Aug-20 14:07N 66°33' E 013°03'5 8.6
2014-Aug-20 13:33N 66°30' E 012°56'7 6.7
2014-Aug-20 12:34N 66°24' E 012°49'2 2.2
2014-Aug-20 11:33N 66°22' E 012°46'8 8.3
2014-Aug-20 10:32N 66°14' E 012°40'78 7.8
2014-Aug-20 00:29N 64°60' E 011°37'8 8.1
2014-Aug-19 23:34N 64°55' E 011°23'5 5.0
2014-Aug-19 22:34N 64°52' E 011°15'  
Track history (hours):
 
Tides and Currents Weather Stations Pressure Air Temp Water Temp Dewpoint Dewpoint Depression Visibility Wind Speed Wind Dir Waves Ship Positions

Biotrans

Last reported at 2014-Aug-28 20:27 UTC. Time now 2014-Aug-29 01:38 UTC.
Position N 64°46' E 011°02'.

Length 55 m; draft 5.5 m.

Type: Cargo ship. MMSI: 259260000.

Date/timePositionNaut miles runAvg speedWind from/ knotsBaromVisibWave heightAir tempDewpointWater temp
2014-Aug-28 20:27N 64°46' E 011°02'7 7.9
2014-Aug-28 19:33N 64°51' E 011°13'8 8.1
2014-Aug-28 18:33N 64°57' E 011°28'8 7.9
2014-Aug-28 17:33N 65°02' E 011°42'8 7.9
2014-Aug-28 16:31N 65°09' E 011°50'64 7.0
2014-Aug-28 07:25N 66°09' E 012°41'12 6.5
2014-Aug-28 05:32N 66°20' E 012°56'40 8.0
2014-Aug-28 00:29N 66°58' E 013°31'11 8.2
2014-Aug-27 23:05N 67°05' E 013°55'4 8.1
2014-Aug-27 22:33N 67°08' E 014°01'8 8.2
2014-Aug-27 21:33N 67°15' E 014°12'8 8.5
2014-Aug-27 20:33N 67°22' E 014°24'8 8.3
2014-Aug-27 19:33N 67°30' E 014°29'157 4.7
2014-Aug-26 10:27N 69°35' E 018°49'6 6.9
2014-Aug-26 09:33N 69°40' E 018°59'0 0.2
2014-Aug-26 08:33N 69°40' E 018°59'0 0.0
2014-Aug-26 07:34N 69°40' E 018°59'0 0.0
2014-Aug-26 06:33N 69°40' E 018°59'0 0.1
2014-Aug-26 05:33N 69°40' E 018°59'  
2014-Aug-22 13:14N 70°43' E 023°32'6 8.4
2014-Aug-22 12:29N 70°38' E 023°21'6 6.9
2014-Aug-22 11:33N 70°32' E 023°14'4 3.3
2014-Aug-22 10:28N 70°32' E 023°03'93 7.8
2014-Aug-21 22:31N 69°45' E 019°07'8 7.9
2014-Aug-21 21:33N 69°38' E 018°57'155 6.7
2014-Aug-20 22:28N 67°37' E 014°31'8 9.0
2014-Aug-20 21:34N 67°29' E 014°29'9 8.8
2014-Aug-20 20:34N 67°21' E 014°22'9 9.0
2014-Aug-20 19:34N 67°13' E 014°09'9 9.1
2014-Aug-20 18:33N 67°05' E 013°56'38 8.6
2014-Aug-20 14:07N 66°33' E 013°03'5 8.6
2014-Aug-20 13:33N 66°30' E 012°56'7 6.7
2014-Aug-20 12:34N 66°24' E 012°49'2 2.2
2014-Aug-20 11:33N 66°22' E 012°46'8 8.3
2014-Aug-20 10:32N 66°14' E 012°40'78 7.8
2014-Aug-20 00:29N 64°60' E 011°37'8 8.1
2014-Aug-19 23:34N 64°55' E 011°23'5 5.0
2014-Aug-19 22:34N 64°52' E 011°15'  

Dump ship's entire track history